Time;durP1;ratioP1;P1;durP2;ratioP2;P2;SDS_P1;SDS_P2;PMS_P1;PMS_P2;Temp;Humidity;BMP_temperature;BMP_pressure;BME280_temperature;BME280_humidity;BME280_pressure;Samples;Min_cycle;Max_cycle;Signal;HPM_P1;HPM_P2
2023/08/15 00:00:26;;;;;;;9.25;3.08;;;19.00;99.90;;;;;;5055293;28;20211;-52
2023/08/15 00:02:52;;;;;;;7.10;2.75;;;19.00;99.90;;;;;;5055381;28;20590;-51
2023/08/15 00:05:18;;;;;;;8.38;2.63;;;19.00;99.90;;;;;;5054221;28;20171;-51
2023/08/15 00:07:43;;;;;;;8.38;2.47;;;19.00;99.90;;;;;;5055259;28;20208;-47
2023/08/15 00:10:09;;;;;;;7.13;2.28;;;18.90;99.90;;;;;;5055433;28;20190;-54
2023/08/15 00:12:35;;;;;;;10.48;2.85;;;18.90;99.90;;;;;;5055536;28;20175;-53
2023/08/15 00:15:01;;;;;;;7.95;2.95;;;18.80;99.90;;;;;;5054185;28;20175;-50
2023/08/15 00:17:26;;;;;;;9.82;2.70;;;18.70;99.90;;;;;;5055428;28;20256;-52
2023/08/15 00:19:52;;;;;;;7.30;2.50;;;18.70;99.90;;;;;;5055276;28;20231;-52
2023/08/15 00:22:17;;;;;;;6.40;2.70;;;18.80;99.90;;;;;;5054987;28;20547;-49
2023/08/15 00:24:43;;;;;;;8.50;2.80;;;18.80;99.90;;;;;;5054926;28;20179;-50
2023/08/15 00:27:09;;;;;;;7.63;3.25;;;18.70;99.90;;;;;;5055186;28;20195;-53
2023/08/15 00:29:35;;;;;;;10.00;3.45;;;18.70;99.90;;;;;;5054981;28;20211;-52
2023/08/15 00:32:01;;;;;;;9.23;3.65;;;18.70;99.90;;;;;;5055161;28;20171;-51
2023/08/15 00:34:26;;;;;;;7.95;3.45;;;18.70;99.90;;;;;;5054913;28;20179;-49
2023/08/15 00:36:52;;;;;;;9.38;3.40;;;18.80;99.90;;;;;;5054820;28;20198;-50
2023/08/15 00:39:18;;;;;;;8.68;3.65;;;18.80;99.90;;;;;;5054632;28;20241;-48
2023/08/15 00:41:44;;;;;;;9.15;3.63;;;18.80;99.90;;;;;;5054499;28;20210;-52
2023/08/15 00:44:09;;;;;;;8.73;4.28;;;18.80;99.90;;;;;;5054219;28;20203;-51
2023/08/15 00:46:37;;;;;;;6.95;3.60;;;18.80;99.90;;;;;;5054923;28;20179;-48
2023/08/15 00:49:04;;;;;;;10.57;4.05;;;18.90;99.90;;;;;;5053350;28;20187;-50
2023/08/15 00:51:31;;;;;;;10.68;3.92;;;18.80;99.90;;;;;;5054501;28;20172;-53
2023/08/15 00:53:57;;;;;;;8.43;3.92;;;18.80;99.90;;;;;;5054335;28;20240;-50
2023/08/15 00:56:22;;;;;;;7.68;3.70;;;18.80;99.90;;;;;;5054508;28;20175;-51
2023/08/15 00:58:48;;;;;;;9.63;3.45;;;18.80;99.90;;;;;;5054458;28;20191;-50
2023/08/15 01:01:18;;;;;;;9.65;3.60;;;18.80;99.90;;;;;;5054407;28;20195;-53
2023/08/15 01:03:46;;;;;;;7.93;3.30;;;18.90;99.90;;;;;;5054256;28;20205;-51
2023/08/15 01:06:11;;;;;;;7.40;3.10;;;18.90;99.90;;;;;;5054156;28;20187;-51
2023/08/15 01:08:37;;;;;;;7.10;3.28;;;18.90;99.90;;;;;;5054325;28;20175;-51
2023/08/15 01:11:04;;;;;;;8.35;3.70;;;18.90;99.90;;;;;;5054226;28;20175;-49
2023/08/15 01:13:51;;;;;;;8.05;3.75;;;19.00;99.90;;;;;;5054164;28;20176;-50
2023/08/15 01:16:28;;;;;;;6.57;3.47;;;18.90;99.90;;;;;;5053986;28;20654;-53
2023/08/15 01:19:26;;;;;;;10.02;3.50;;;18.90;99.90;;;;;;5053643;28;20560;-52
2023/08/15 01:21:55;;;;;;;10.02;3.80;;;18.80;99.90;;;;;;5053947;28;20544;-53
2023/08/15 01:24:21;;;;;;;6.13;3.28;;;18.80;99.90;;;;;;5053986;28;20221;-51
2023/08/15 01:26:46;;;;;;;11.45;3.78;;;18.80;99.90;;;;;;5053887;28;20228;-48
2023/08/15 01:29:12;;;;;;;9.15;3.53;;;18.80;99.90;;;;;;5053781;28;20179;-52
2023/08/15 01:31:50;;;;;;;8.55;3.78;;;18.70;99.90;;;;;;5053998;28;20175;-52
2023/08/15 01:34:33;;;;;;;6.65;3.40;;;18.70;99.90;;;;;;5053631;28;20628;-52
2023/08/15 01:37:20;;;;;;;6.45;3.30;;;18.70;99.90;;;;;;5053844;28;20250;-51
2023/08/15 01:39:50;;;;;;;11.40;4.13;;;18.60;99.90;;;;;;5053543;28;20199;-52
2023/08/15 01:42:17;;;;;;;13.05;3.88;;;18.60;99.90;;;;;;5053667;28;20203;-50
2023/08/15 01:44:44;;;;;;;6.25;3.72;;;18.50;99.90;;;;;;5053664;28;20171;-50
2023/08/15 01:47:10;;;;;;;6.85;3.60;;;18.60;99.90;;;;;;5053516;28;20171;-51
2023/08/15 01:49:36;;;;;;;9.57;3.70;;;18.60;99.90;;;;;;5053558;28;20180;-52
2023/08/15 01:52:01;;;;;;;7.13;3.20;;;18.60;99.90;;;;;;5053374;28;20175;-51
2023/08/15 01:54:27;;;;;;;9.65;3.78;;;18.50;99.90;;;;;;5053121;28;20501;-51
2023/08/15 01:56:53;;;;;;;5.70;3.20;;;18.50;99.90;;;;;;5053253;28;20652;-49
2023/08/15 01:59:19;;;;;;;16.77;5.70;;;18.50;99.90;;;;;;5053361;28;20206;-52
2023/08/15 02:01:44;;;;;;;7.63;3.92;;;18.40;99.90;;;;;;5053209;28;20183;-52
2023/08/15 02:04:10;;;;;;;7.07;3.53;;;18.40;99.90;;;;;;5053254;28;20179;-51
2023/08/15 02:06:35;;;;;;;12.07;3.88;;;18.30;99.90;;;;;;5053193;28;20295;-49
2023/08/15 02:09:01;;;;;;;9.30;3.38;;;18.20;99.90;;;;;;5053276;28;20647;-52
2023/08/15 02:11:27;;;;;;;11.02;3.92;;;18.20;99.90;;;;;;5053281;28;20175;-51
2023/08/15 02:13:54;;;;;;;9.75;4.20;;;18.30;99.90;;;;;;5053272;28;20171;-53
2023/08/15 02:16:19;;;;;;;7.40;3.38;;;18.30;99.90;;;;;;5053175;28;20658;-52
2023/08/15 02:18:45;;;;;;;10.00;3.75;;;18.40;99.90;;;;;;5052983;28;20219;-53
2023/08/15 02:21:11;;;;;;;8.20;3.88;;;18.40;99.90;;;;;;5053183;28;20703;-51
2023/08/15 02:23:36;;;;;;;9.23;3.85;;;18.40;99.90;;;;;;5052914;28;20183;-51
2023/08/15 02:26:02;;;;;;;9.15;3.53;;;18.30;99.90;;;;;;5053109;28;20540;-50
2023/08/15 02:28:28;;;;;;;6.80;3.63;;;18.30;99.90;;;;;;5053053;28;20628;-48
2023/08/15 02:30:54;;;;;;;8.70;3.97;;;18.20;99.90;;;;;;5053019;28;20190;-52
2023/08/15 02:33:20;;;;;;;10.68;3.67;;;18.20;99.90;;;;;;5052979;28;20179;-53
2023/08/15 02:35:45;;;;;;;7.85;3.42;;;18.10;99.90;;;;;;5052929;28;20181;-52
2023/08/15 02:38:11;;;;;;;9.55;4.00;;;18.10;99.90;;;;;;5052820;28;20175;-51
2023/08/15 02:40:36;;;;;;;9.48;3.72;;;18.10;99.90;;;;;;5053117;28;20211;-52
2023/08/15 02:43:02;;;;;;;9.68;3.67;;;18.10;99.90;;;;;;5053060;28;20243;-52
2023/08/15 02:45:28;;;;;;;9.57;4.00;;;18.20;99.90;;;;;;5053045;28;20171;-50
2023/08/15 02:47:53;;;;;;;8.80;4.20;;;18.10;99.90;;;;;;5052833;28;20187;-52
2023/08/15 02:50:19;;;;;;;6.63;3.95;;;18.00;99.90;;;;;;5052868;28;20189;-52
2023/08/15 02:52:45;;;;;;;7.55;3.70;;;17.90;99.90;;;;;;5052760;28;20171;-52
2023/08/15 02:55:10;;;;;;;10.55;4.00;;;17.80;99.90;;;;;;5052981;28;20183;-50
2023/08/15 02:57:37;;;;;;;10.95;4.00;;;17.60;99.90;;;;;;5052695;28;20187;-52
2023/08/15 03:00:04;;;;;;;10.30;3.88;;;17.60;99.90;;;;;;5052564;28;20215;-53
2023/08/15 03:02:29;;;;;;;7.97;3.45;;;17.70;99.90;;;;;;5052695;28;20198;-51
2023/08/15 03:04:55;;;;;;;7.28;3.83;;;17.90;99.90;;;;;;5052731;28;20633;-53
2023/08/15 03:07:20;;;;;;;9.50;4.15;;;17.90;99.90;;;;;;5056022;28;20202;-52
2023/08/15 03:09:46;;;;;;;6.75;3.50;;;17.90;99.90;;;;;;5056334;28;20225;-51
2023/08/15 03:12:12;;;;;;;7.63;3.65;;;17.90;99.90;;;;;;5056312;28;20177;-53
2023/08/15 03:14:37;;;;;;;7.80;3.47;;;17.70;99.90;;;;;;5056334;28;20258;-49
2023/08/15 03:17:03;;;;;;;11.60;3.78;;;17.80;99.90;;;;;;5056374;28;20255;-52
2023/08/15 03:19:30;;;;;;;10.70;4.13;;;17.80;99.90;;;;;;5056011;28;20253;-52
2023/08/15 03:21:56;;;;;;;9.50;3.63;;;17.80;99.90;;;;;;5056161;28;20228;-50
2023/08/15 03:24:21;;;;;;;11.82;4.20;;;17.70;99.90;;;;;;5056300;28;20179;-51
2023/08/15 03:26:47;;;;;;;10.20;4.30;;;17.70;99.90;;;;;;5056143;28;20221;-52
2023/08/15 03:29:13;;;;;;;12.85;4.38;;;17.60;99.90;;;;;;5056242;28;20644;-51
2023/08/15 03:31:38;;;;;;;8.40;3.90;;;17.60;99.90;;;;;;5056115;28;20207;-52
2023/08/15 03:34:04;;;;;;;7.53;4.20;;;17.60;99.90;;;;;;5056006;28;20175;-51
2023/08/15 03:36:30;;;;;;;14.95;4.97;;;17.60;99.90;;;;;;5055832;28;20632;-51
2023/08/15 03:38:55;;;;;;;7.32;3.75;;;17.70;99.90;;;;;;5055954;28;20211;-53
2023/08/15 03:41:21;;;;;;;10.90;4.30;;;17.60;99.90;;;;;;5055913;28;20218;-52
2023/08/15 03:43:47;;;;;;;9.52;4.10;;;17.50;99.90;;;;;;5055989;28;20175;-53
2023/08/15 03:46:12;;;;;;;8.38;4.38;;;17.60;99.90;;;;;;5054812;28;20183;-51
2023/08/15 03:48:38;;;;;;;10.38;4.63;;;17.50;99.90;;;;;;5055798;28;20179;-52
2023/08/15 03:51:04;;;;;;;10.70;4.15;;;17.50;99.90;;;;;;5055592;28;20262;-50
2023/08/15 03:53:30;;;;;;;9.77;4.55;;;17.40;99.90;;;;;;5055813;28;20175;-49
2023/08/15 03:55:56;;;;;;;7.18;3.90;;;17.50;99.90;;;;;;5055745;28;20186;-52
2023/08/15 03:58:22;;;;;;;11.77;4.20;;;17.40;99.90;;;;;;5055504;28;20167;-49
2023/08/15 04:00:49;;;;;;;10.10;4.55;;;17.40;99.90;;;;;;5055551;28;20238;-51
2023/08/15 04:03:15;;;;;;;8.93;4.32;;;17.50;99.90;;;;;;5055358;28;20185;-53
2023/08/15 04:05:47;;;;;;;12.25;4.85;;;17.50;99.90;;;;;;5055654;28;20203;-52
2023/08/15 04:08:15;;;;;;;10.02;4.38;;;17.40;99.90;;;;;;5055186;28;20183;-50
2023/08/15 04:10:40;;;;;;;10.23;4.20;;;17.40;99.90;;;;;;5055227;28;20598;-50
2023/08/15 04:13:07;;;;;;;10.85;4.47;;;17.40;99.90;;;;;;5055245;28;20270;-52
2023/08/15 04:15:34;;;;;;;10.38;4.10;;;17.50;99.90;;;;;;5055470;28;20183;-52
2023/08/15 04:18:01;;;;;;;10.00;4.13;;;17.40;99.90;;;;;;5054958;28;20186;-53
2023/08/15 04:20:26;;;;;;;8.18;4.10;;;17.40;99.90;;;;;;5054833;28;20297;-51
2023/08/15 04:22:52;;;;;;;7.18;4.03;;;17.50;99.90;;;;;;5055239;28;20633;-51
2023/08/15 04:25:18;;;;;;;9.45;4.03;;;17.40;99.90;;;;;;5055104;28;20216;-53
2023/08/15 04:27:43;;;;;;;10.40;4.38;;;17.30;99.90;;;;;;5055073;28;20619;-49
2023/08/15 04:30:09;;;;;;;11.38;4.25;;;17.30;99.90;;;;;;5054878;28;20535;-52
2023/08/15 04:32:35;;;;;;;7.88;4.35;;;17.20;99.90;;;;;;5055035;28;20245;-52
2023/08/15 04:35:00;;;;;;;8.02;4.25;;;17.30;99.90;;;;;;5054750;28;20179;-48
2023/08/15 04:37:26;;;;;;;6.43;3.63;;;17.30;99.90;;;;;;5054939;28;20250;-50
2023/08/15 04:39:52;;;;;;;9.45;4.22;;;17.20;99.90;;;;;;5054897;28;20209;-50
2023/08/15 04:42:17;;;;;;;9.30;3.90;;;17.30;99.90;;;;;;5054752;28;20253;-51
2023/08/15 04:44:43;;;;;;;9.10;3.63;;;17.30;99.90;;;;;;5054733;28;20183;-48
2023/08/15 04:47:09;;;;;;;7.97;4.05;;;17.30;99.90;;;;;;5054532;28;20187;-52
2023/08/15 04:49:34;;;;;;;9.70;3.92;;;17.40;99.90;;;;;;5054538;28;20549;-51
2023/08/15 04:52:00;;;;;;;9.23;3.90;;;17.40;99.90;;;;;;5054648;28;20194;-52
2023/08/15 04:54:26;;;;;;;7.65;3.80;;;17.40;99.90;;;;;;5053386;28;20615;-51
2023/08/15 04:56:52;;;;;;;6.78;3.88;;;17.40;99.90;;;;;;5054771;28;20258;-50
2023/08/15 04:59:18;;;;;;;13.07;5.10;;;17.40;99.90;;;;;;5054275;28;20294;-52
2023/08/15 05:01:44;;;;;;;11.63;4.20;;;17.40;99.90;;;;;;5054312;28;20175;-51
2023/08/15 05:04:10;;;;;;;9.75;4.47;;;17.40;99.90;;;;;;5054439;28;20229;-52
2023/08/15 05:06:36;;;;;;;5.50;3.70;;;17.50;99.90;;;;;;5054210;28;20183;-53
2023/08/15 05:09:02;;;;;;;10.05;4.28;;;17.50;99.90;;;;;;5054311;28;20210;-48
2023/08/15 05:11:27;;;;;;;7.35;4.05;;;17.50;99.90;;;;;;5054216;28;20190;-50
2023/08/15 05:13:53;;;;;;;7.07;4.10;;;17.50;99.90;;;;;;5054216;28;20171;-51
2023/08/15 05:16:18;;;;;;;10.85;4.28;;;17.50;99.90;;;;;;5052773;28;20175;-50
2023/08/15 05:18:44;;;;;;;11.30;4.35;;;17.50;99.90;;;;;;5053447;28;20227;-52
2023/08/15 05:21:10;;;;;;;14.85;4.95;;;17.60;99.90;;;;;;5053640;28;20237;-50
2023/08/15 05:23:35;;;;;;;8.45;3.80;;;17.60;99.90;;;;;;5054044;28;20179;-51
2023/08/15 05:26:01;;;;;;;10.13;3.90;;;17.60;99.90;;;;;;5054191;28;20221;-50
2023/08/15 05:28:26;;;;;;;13.05;4.55;;;17.70;99.90;;;;;;5053314;28;20576;-50
2023/08/15 05:30:52;;;;;;;11.60;4.60;;;17.80;99.90;;;;;;5053831;28;20205;-53
2023/08/15 05:33:18;;;;;;;10.02;4.30;;;18.00;99.90;;;;;;5053613;28;20179;-50
2023/08/15 05:35:43;;;;;;;10.90;4.75;;;18.10;99.90;;;;;;5053822;28;20175;-51
2023/08/15 05:38:09;;;;;;;9.32;4.18;;;18.20;99.90;;;;;;5053751;28;20167;-48
2023/08/15 05:40:34;;;;;;;8.75;4.40;;;18.30;99.90;;;;;;5053535;28;20215;-53
2023/08/15 05:43:00;;;;;;;15.52;4.57;;;18.50;99.90;;;;;;5053660;28;20190;-51
2023/08/15 05:45:26;;;;;;;10.98;4.25;;;18.60;99.90;;;;;;5053561;28;20199;-52
2023/08/15 05:47:51;;;;;;;11.43;4.35;;;18.60;99.90;;;;;;5053357;28;20171;-50
2023/08/15 05:50:17;;;;;;;10.45;4.35;;;18.80;99.90;;;;;;5053709;28;20214;-51
2023/08/15 05:52:43;;;;;;;9.43;4.20;;;18.90;99.90;;;;;;5053711;28;20762;-51
2023/08/15 05:55:08;;;;;;;8.23;4.30;;;19.10;99.90;;;;;;5053457;28;20172;-49
2023/08/15 05:57:34;;;;;;;11.45;4.93;;;19.10;99.90;;;;;;5053386;28;20178;-52
2023/08/15 06:00:00;;;;;;;7.70;4.13;;;19.10;99.90;;;;;;5053261;28;20203;-52
2023/08/15 06:02:25;;;;;;;9.48;4.07;;;19.20;99.90;;;;;;5053192;28;20176;-52
2023/08/15 06:04:51;;;;;;;12.82;3.90;;;19.10;99.90;;;;;;5053428;28;20178;-51
2023/08/15 06:07:17;;;;;;;8.52;4.35;;;19.20;99.90;;;;;;5053381;28;20632;-52
2023/08/15 06:09:43;;;;;;;8.85;4.03;;;19.20;99.90;;;;;;5053337;28;20176;-53
2023/08/15 06:12:09;;;;;;;8.77;3.75;;;19.20;99.90;;;;;;5053257;28;20183;-53
2023/08/15 06:14:37;;;;;;;8.18;3.45;;;19.30;99.90;;;;;;5053213;28;20197;-50
2023/08/15 06:17:04;;;;;;;10.10;4.22;;;19.30;99.90;;;;;;5052079;28;20176;-52
2023/08/15 06:19:29;;;;;;;8.75;4.32;;;19.30;99.90;;;;;;5051228;28;20231;-51
2023/08/15 06:21:55;;;;;;;11.05;3.97;;;19.30;99.90;;;;;;5050587;28;20628;-49
2023/08/15 06:24:21;;;;;;;11.90;4.68;;;19.30;99.90;;;;;;5052161;28;20635;-51
2023/08/15 06:26:46;;;;;;;9.90;4.60;;;19.40;99.90;;;;;;5052079;28;20548;-52
2023/08/15 06:29:12;;;;;;;9.95;4.28;;;19.40;99.90;;;;;;5052046;28;20176;-54
2023/08/15 06:31:37;;;;;;;8.60;3.90;;;19.40;99.90;;;;;;5052236;28;20175;-52
2023/08/15 06:34:03;;;;;;;6.57;3.72;;;19.40;99.90;;;;;;5052192;28;20179;-48
2023/08/15 06:36:30;;;;;;;8.82;3.60;;;19.50;99.90;;;;;;5052891;28;20176;-52
2023/08/15 06:38:56;;;;;;;6.35;3.47;;;19.60;99.90;;;;;;5052939;28;20207;-49
2023/08/15 06:41:21;;;;;;;6.85;3.40;;;19.70;99.90;;;;;;5054867;28;20628;-51
2023/08/15 06:43:47;;;;;;;6.57;3.58;;;19.60;99.90;;;;;;5056959;28;20175;-50
2023/08/15 06:46:13;;;;;;;9.30;3.88;;;19.60;99.90;;;;;;5056871;28;20168;-52
2023/08/15 06:48:39;;;;;;;11.27;3.88;;;19.40;99.90;;;;;;5056989;28;20262;-51
2023/08/15 06:51:05;;;;;;;9.23;4.22;;;19.40;99.90;;;;;;5056792;28;20259;-50
2023/08/15 06:53:31;;;;;;;9.40;3.65;;;19.70;99.90;;;;;;5056985;28;20175;-49
2023/08/15 06:55:57;;;;;;;7.18;3.80;;;19.90;99.90;;;;;;5056769;28;20233;-51
2023/08/15 06:58:23;;;;;;;8.57;3.45;;;20.00;99.90;;;;;;5056664;28;20180;-51
2023/08/15 07:00:49;;;;;;;10.10;3.63;;;20.20;99.90;;;;;;5056431;28;20705;-50
2023/08/15 07:03:15;;;;;;;8.95;3.92;;;20.40;99.90;;;;;;5056683;28;20201;-51
2023/08/15 07:05:42;;;;;;;6.35;3.25;;;20.50;99.90;;;;;;5056695;28;20195;-52
2023/08/15 07:08:08;;;;;;;8.90;3.83;;;20.60;99.90;;;;;;5056589;28;20703;-51
2023/08/15 07:10:36;;;;;;;10.20;3.90;;;20.70;99.90;;;;;;5056360;28;20179;-52
2023/08/15 07:13:02;;;;;;;8.05;3.67;;;20.70;99.90;;;;;;5056429;28;20221;-49
2023/08/15 07:15:28;;;;;;;7.80;3.60;;;20.80;99.90;;;;;;5056345;28;20509;-51
2023/08/15 07:17:54;;;;;;;12.23;3.90;;;20.90;99.90;;;;;;5056502;28;20187;-52
2023/08/15 07:20:20;;;;;;;8.35;3.10;;;20.90;99.90;;;;;;5056277;28;20230;-50
2023/08/15 07:22:46;;;;;;;7.70;3.70;;;21.10;99.90;;;;;;5056191;28;20187;-52
2023/08/15 07:25:11;;;;;;;8.10;3.22;;;21.20;99.90;;;;;;5056211;28;20168;-53
2023/08/15 07:27:37;;;;;;;6.90;3.05;;;21.30;99.90;;;;;;5056138;28;20182;-51
2023/08/15 07:30:05;;;;;;;6.90;2.95;;;21.40;99.90;;;;;;5055945;28;20183;-52
2023/08/15 07:32:31;;;;;;;8.35;3.35;;;21.50;99.90;;;;;;5056085;28;20214;-51
2023/08/15 07:34:57;;;;;;;8.25;3.20;;;21.60;99.90;;;;;;5055614;28;20203;-51
2023/08/15 07:37:22;;;;;;;8.38;2.90;;;21.60;99.90;;;;;;5056026;28;20182;-47
2023/08/15 07:39:58;;;;;;;7.18;3.13;;;21.70;99.90;;;;;;5055805;28;20215;-48
2023/08/15 07:42:25;;;;;;;8.85;3.40;;;21.80;99.90;;;;;;5055926;28;20250;-50
2023/08/15 07:44:51;;;;;;;8.23;3.50;;;21.90;99.90;;;;;;5055760;28;20172;-49
2023/08/15 07:47:16;;;;;;;8.05;2.92;;;22.00;99.90;;;;;;5055896;28;20240;-50
2023/08/15 07:49:42;;;;;;;6.47;3.45;;;22.10;99.90;;;;;;5056081;28;20176;-50
2023/08/15 07:52:07;;;;;;;7.40;3.00;;;22.20;99.90;;;;;;5055398;28;20179;-49
2023/08/15 07:54:33;;;;;;;6.47;3.00;;;22.20;99.90;;;;;;5055625;28;20183;-51
2023/08/15 07:56:59;;;;;;;8.73;3.55;;;22.30;99.90;;;;;;5055570;28;20171;-51
2023/08/15 07:59:24;;;;;;;5.85;3.22;;;22.40;99.90;;;;;;5055332;28;20226;-51
2023/08/15 08:01:50;;;;;;;7.50;2.70;;;22.50;99.90;;;;;;5055654;28;20663;-48
2023/08/15 08:04:19;;;;;;;6.15;2.88;;;22.70;99.90;;;;;;5055545;28;20187;-49
2023/08/15 08:06:44;;;;;;;7.35;2.70;;;22.80;99.90;;;;;;5055464;28;20254;-47
2023/08/15 08:09:10;;;;;;;6.78;2.80;;;23.00;99.90;;;;;;5055589;28;20230;-51
2023/08/15 08:11:36;;;;;;;4.47;2.40;;;23.10;99.90;;;;;;5055211;28;20175;-51
2023/08/15 08:14:03;;;;;;;7.63;2.60;;;23.30;99.90;;;;;;5055460;28;20175;-52
2023/08/15 08:16:29;;;;;;;5.35;2.30;;;23.30;99.90;;;;;;5055319;28;20180;-50
2023/08/15 08:18:54;;;;;;;7.40;3.13;;;23.40;99.90;;;;;;5053793;28;20296;-51
2023/08/15 08:21:20;;;;;;;4.45;2.40;;;23.50;99.90;;;;;;5055149;28;20179;-47
2023/08/15 08:23:46;;;;;;;5.70;2.65;;;23.60;99.90;;;;;;5055106;28;20337;-51
2023/08/15 08:26:12;;;;;;;5.32;2.40;;;23.40;99.90;;;;;;5054990;28;20225;-50
2023/08/15 08:28:37;;;;;;;5.45;2.60;;;23.40;99.90;;;;;;5055159;28;20198;-52
2023/08/15 08:31:03;;;;;;;6.82;2.30;;;23.40;99.90;;;;;;5055099;28;20222;-50
2023/08/15 08:33:28;;;;;;;4.03;2.20;;;23.30;99.90;;;;;;5055081;28;20532;-50
2023/08/15 08:35:54;;;;;;;3.72;2.33;;;23.30;99.90;;;;;;5054893;28;20277;-51
2023/08/15 08:38:20;;;;;;;6.38;2.50;;;23.40;99.90;;;;;;5054779;28;20182;-49
2023/08/15 08:40:47;;;;;;;5.55;1.98;;;23.50;99.90;;;;;;5054125;28;20195;-51
2023/08/15 08:43:15;;;;;;;4.63;1.95;;;23.50;99.90;;;;;;5054803;28;20698;-47
2023/08/15 08:45:46;;;;;;;10.38;2.35;;;23.60;99.90;;;;;;5054864;28;20167;-48
2023/08/15 08:48:15;;;;;;;5.97;1.88;;;23.70;99.90;;;;;;5054742;28;20640;-53
2023/08/15 08:50:41;;;;;;;4.75;1.70;;;23.90;99.90;;;;;;5054777;28;20179;-52
2023/08/15 08:53:06;;;;;;;3.60;1.95;;;23.90;99.90;;;;;;5054592;28;20182;-50
2023/08/15 08:55:33;;;;;;;5.68;2.50;;;23.80;99.90;;;;;;5054409;28;20254;-50
2023/08/15 08:58:02;;;;;;;3.85;1.85;;;24.00;99.90;;;;;;5054423;28;20172;-50
2023/08/15 09:00:31;;;;;;;3.60;1.60;;;24.10;99.90;;;;;;5054445;28;20567;-51
2023/08/15 09:02:58;;;;;;;4.28;1.80;;;23.90;99.90;;;;;;5053868;28;20274;-49
2023/08/15 09:05:24;;;;;;;7.53;2.03;;;24.10;99.90;;;;;;5054027;28;20175;-50
2023/08/15 09:07:51;;;;;;;4.60;2.00;;;24.20;99.90;;;;;;5054206;28;20671;-50
2023/08/15 09:10:16;;;;;;;4.60;1.98;;;24.40;99.90;;;;;;5054403;28;20175;-52
2023/08/15 09:12:45;;;;;;;5.68;1.83;;;24.60;99.90;;;;;;5054440;28;20205;-52
2023/08/15 09:15:11;;;;;;;4.75;2.10;;;24.80;99.90;;;;;;5054057;28;20225;-50
2023/08/15 09:17:40;;;;;;;4.35;1.88;;;24.90;99.90;;;;;;5054081;28;20179;-53
2023/08/15 09:20:13;;;;;;;5.13;2.00;;;24.70;99.90;;;;;;5053733;28;20227;-50
2023/08/15 09:22:41;;;;;;;4.13;1.67;;;24.60;99.90;;;;;;5053777;28;20258;-52
2023/08/15 09:25:08;;;;;;;5.70;1.98;;;24.40;99.90;;;;;;5054039;28;20175;-52
2023/08/15 09:27:34;;;;;;;5.05;1.92;;;24.20;99.90;;;;;;5054065;28;20198;-50
2023/08/15 09:30:11;;;;;;;3.90;1.92;;;24.20;99.90;;;;;;5054219;28;20289;-52
2023/08/15 09:32:39;;;;;;;4.82;1.60;;;23.90;99.90;;;;;;5053805;28;20175;-51
2023/08/15 09:35:07;;;;;;;3.90;1.73;;;23.80;99.90;;;;;;5053621;28;20166;-52
2023/08/15 09:37:33;;;;;;;4.13;1.80;;;23.80;99.90;;;;;;5054071;28;20697;-51
2023/08/15 09:40:00;;;;;;;4.43;1.77;;;23.70;99.90;;;;;;5053877;28;20294;-51
2023/08/15 09:42:27;;;;;;;5.07;1.70;;;23.40;99.90;;;;;;5053636;28;20176;-52
2023/08/15 09:44:54;;;;;;;4.50;1.65;;;23.30;99.90;;;;;;5053684;28;20678;-51
2023/08/15 09:47:20;;;;;;;2.42;1.45;;;23.30;99.90;;;;;;5053509;28;20493;-51
2023/08/15 09:49:50;;;;;;;4.38;1.77;;;23.30;99.90;;;;;;5053309;28;20179;-48
2023/08/15 09:52:18;;;;;;;5.32;1.70;;;23.50;99.90;;;;;;5053537;28;20180;-47
2023/08/15 09:54:45;;;;;;;5.45;1.83;;;23.80;99.90;;;;;;5053613;28;20179;-51
2023/08/15 09:57:11;;;;;;;4.93;1.60;;;23.90;99.90;;;;;;5053493;28;20225;-51
2023/08/15 09:59:37;;;;;;;6.13;1.83;;;24.00;99.90;;;;;;5053321;28;20199;-52
2023/08/15 10:02:09;;;;;;;4.25;1.50;;;24.20;99.90;;;;;;5053231;28;20698;-50
2023/08/15 10:04:35;;;;;;;3.53;1.60;;;24.30;99.90;;;;;;5053563;28;20207;-48
2023/08/15 10:07:01;;;;;;;6.70;1.88;;;24.20;99.90;;;;;;5053429;28;20171;-50
2023/08/15 10:09:30;;;;;;;4.03;1.65;;;24.10;99.90;;;;;;5053242;28;20187;-50
2023/08/15 10:11:57;;;;;;;5.03;2.00;;;24.00;99.90;;;;;;5053314;28;20258;-48
2023/08/15 10:14:23;;;;;;;4.05;1.55;;;23.90;99.90;;;;;;5053126;28;20167;-48
2023/08/15 10:16:50;;;;;;;3.97;1.52;;;23.60;99.90;;;;;;5053019;28;20172;-50
2023/08/15 10:19:17;;;;;;;7.00;1.90;;;23.60;99.90;;;;;;5053030;28;20223;-51
2023/08/15 10:21:47;;;;;;;3.80;1.60;;;23.90;99.90;;;;;;5053381;28;20184;-52
2023/08/15 10:24:13;;;;;;;5.80;1.95;;;24.20;99.90;;;;;;5053176;28;20248;-51
2023/08/15 10:26:39;;;;;;;7.03;1.83;;;24.60;99.90;;;;;;5053046;28;20175;-51
2023/08/15 10:29:04;;;;;;;4.72;1.60;;;25.00;99.90;;;;;;5052989;28;20719;-51
2023/08/15 10:31:37;;;;;;;4.65;1.70;;;25.30;99.90;;;;;;5052988;28;20178;-52
2023/08/15 10:34:04;;;;;;;4.70;1.52;;;25.40;99.90;;;;;;5053229;28;20177;-52
2023/08/15 10:36:33;;;;;;;4.93;1.50;;;25.50;99.90;;;;;;5051165;28;20171;-52
2023/08/15 10:39:07;;;;;;;3.80;1.95;;;25.40;99.90;;;;;;5051502;28;20297;-52
2023/08/15 10:41:36;;;;;;;6.13;1.92;;;25.50;99.90;;;;;;5050796;28;20262;-51
2023/08/15 10:44:05;;;;;;;4.38;1.80;;;25.40;99.90;;;;;;5051266;28;20705;-53
2023/08/15 10:46:34;;;;;;;2.08;1.33;;;25.20;99.90;;;;;;5051533;28;20555;-52
2023/08/15 10:49:10;;;;;;;4.60;1.50;;;25.30;99.90;;;;;;5051508;28;20528;-52
2023/08/15 10:51:38;;;;;;;3.30;1.80;;;25.00;99.90;;;;;;5051667;28;20186;-51
2023/08/15 10:54:08;;;;;;;4.72;1.80;;;25.00;99.90;;;;;;5052315;28;20167;-52
2023/08/15 10:56:38;;;;;;;5.30;2.05;;;25.10;99.90;;;;;;5052894;28;20182;-51
2023/08/15 10:59:07;;;;;;;3.78;1.75;;;25.30;99.90;;;;;;5051555;28;20218;-51
2023/08/15 11:01:33;;;;;;;4.65;1.50;;;25.50;99.90;;;;;;5052599;28;20632;-50
2023/08/15 11:04:00;;;;;;;4.40;1.65;;;25.70;99.90;;;;;;5052802;28;20194;-49
2023/08/15 11:06:26;;;;;;;5.25;1.75;;;25.60;99.90;;;;;;5051110;28;20211;-51
2023/08/15 11:08:56;;;;;;;2.78;1.63;;;25.50;99.90;;;;;;5052260;28;20214;-50
2023/08/15 11:11:23;;;;;;;4.00;1.77;;;25.60;99.90;;;;;;5051106;28;20167;-50
2023/08/15 11:13:51;;;;;;;4.10;1.60;;;25.50;99.90;;;;;;5049638;28;20183;-52
2023/08/15 11:16:18;;;;;;;4.32;1.77;;;25.40;99.90;;;;;;5051221;28;20694;-51
2023/08/15 11:18:45;;;;;;;3.38;1.83;;;25.30;99.90;;;;;;5050964;28;20235;-51
2023/08/15 11:21:13;;;;;;;4.88;2.05;;;25.30;99.90;;;;;;5051221;28;20217;-51
2023/08/15 11:23:39;;;;;;;4.78;1.95;;;25.50;99.90;;;;;;5051037;28;20172;-53
2023/08/15 11:26:07;;;;;;;4.03;1.70;;;25.70;99.90;;;;;;5052018;28;20179;-51
2023/08/15 11:28:34;;;;;;;3.35;1.83;;;25.70;99.90;;;;;;5056058;28;20233;-53
2023/08/15 11:31:04;;;;;;;3.42;1.88;;;25.70;99.90;;;;;;5056041;28;20633;-50
2023/08/15 11:33:30;;;;;;;2.95;1.77;;;25.90;99.90;;;;;;5056117;28;20210;-52
2023/08/15 11:36:01;;;;;;;3.05;1.92;;;26.00;99.90;;;;;;5056394;28;20167;-50
2023/08/15 11:38:28;;;;;;;5.72;2.28;;;26.30;99.90;;;;;;5056072;28;20193;-47
2023/08/15 11:40:59;;;;;;;4.85;2.05;;;26.40;99.90;;;;;;5055960;28;20211;-51
2023/08/15 11:43:25;;;;;;;4.63;2.10;;;26.40;99.90;;;;;;5055996;28;20179;-51
2023/08/15 11:45:51;;;;;;;5.68;2.15;;;26.40;99.90;;;;;;5055822;28;20639;-50
2023/08/15 11:48:18;;;;;;;4.95;2.25;;;26.30;99.90;;;;;;5055796;28;20179;-49
2023/08/15 11:50:44;;;;;;;4.45;2.10;;;26.50;99.90;;;;;;5055682;28;20175;-53
2023/08/15 11:53:11;;;;;;;6.78;3.58;;;26.60;99.90;;;;;;5055782;28;20523;-50
2023/08/15 11:55:38;;;;;;;4.13;1.85;;;26.50;99.90;;;;;;5055702;28;20287;-51
2023/08/15 11:58:29;;;;;;;3.92;1.90;;;26.60;99.90;;;;;;5055711;28;20176;-50
2023/08/15 12:01:05;;;;;;;3.50;1.73;;;26.40;99.90;;;;;;5055514;28;20210;-50
2023/08/15 12:03:31;;;;;;;5.40;1.90;;;26.00;99.90;;;;;;5055653;28;20210;-52
2023/08/15 12:05:58;;;;;;;3.47;1.80;;;25.50;99.90;;;;;;5055602;28;20249;-50
2023/08/15 12:08:25;;;;;;;4.28;2.03;;;25.20;99.90;;;;;;5055534;28;20255;-52
2023/08/15 12:10:53;;;;;;;5.90;2.40;;;25.40;99.90;;;;;;5055417;28;20171;-49
2023/08/15 12:13:31;;;;;;;4.63;2.22;;;25.70;99.90;;;;;;5055319;28;20176;-51
2023/08/15 12:15:58;;;;;;;3.92;2.10;;;26.00;99.90;;;;;;5055496;28;20179;-50
2023/08/15 12:18:24;;;;;;;3.35;1.80;;;26.20;99.90;;;;;;5055202;28;20168;-50
2023/08/15 12:20:49;;;;;;;4.43;1.63;;;26.40;99.90;;;;;;5055337;28;20294;-52
2023/08/15 12:23:15;;;;;;;5.80;2.20;;;26.50;99.90;;;;;;5055245;28;20179;-49
2023/08/15 12:25:40;;;;;;;4.68;2.05;;;26.50;99.90;;;;;;5055166;28;20172;-49
2023/08/15 12:28:07;;;;;;;4.05;1.92;;;26.70;99.90;;;;;;5055023;28;20175;-52
2023/08/15 12:30:33;;;;;;;3.83;1.73;;;26.60;99.90;;;;;;5055364;28;20187;-52
2023/08/15 12:32:58;;;;;;;4.85;1.88;;;26.40;99.90;;;;;;5055019;28;20179;-48
2023/08/15 12:35:24;;;;;;;4.43;1.88;;;26.50;99.90;;;;;;5055069;28;20171;-49
2023/08/15 12:37:50;;;;;;;3.95;2.00;;;26.70;99.90;;;;;;5054817;28;20172;-48
2023/08/15 12:40:16;;;;;;;2.70;1.70;;;26.60;99.90;;;;;;5054717;28;20294;-52
2023/08/15 12:42:41;;;;;;;3.75;1.90;;;26.70;99.90;;;;;;5054721;28;20659;-50